Home > Products > Valid Products > TAF

000
FTUS45 KSLC 251120
TAFENV
TAF
KENV 251120Z 2512/2612 VRB05KT P6SM FEW050 FEW100
      AMD LTD TO CLD VIS AND WIND=



000
FTUS45 KSLC 251120
TAFOGD
TAF
KOGD 251120Z 2512/2612 VRB05KT P6SM OVC040
     FM252200 VRB04KT P6SM SCT040 SCT100=



000
FTUS45 KSLC 251120
TAFSLC
TAF
KSLC 251120Z 2512/2618 16005KT P6SM OVC040
     FM252000 34006KT P6SM SCT050 SCT100
     FM260300 16006KT P6SM FEW050=



000
FTUS45 KSLC 251120
TAFLGU
TAF
KLGU 251120Z 2512/2612 VRB04KT P6SM OVC035
      TEMPO 2512/2515 4SM BR
     FM252300 VRB03KT P6SM SCT030 SCT100
     FM260900 00000KT 1SM BR BCFG FEW002=



000
FTUS45 KSLC 251120
TAFSGU
TAF
KSGU 251120Z 2512/2612 VRB05KT P6SM SKC
      AMD LTD TO CLD VIS AND WIND=



000
FTUS45 KSLC 251120
TAFPVU
TAF
KPVU 251120Z 2512/2612 VRB04KT P6SM OVC035
     FM252000 VRB04KT P6SM SCT040 SCT100
      AMD LTD TO CLD VIS AND WIND=



000
FTUS45 KSLC 251120
TAFPVU
TAF
KPVU 251120Z 2512/2612 VRB04KT P6SM OVC035
     FM252000 VRB04KT P6SM SCT040 SCT100
      AMD LTD TO CLD VIS AND WIND=



000
FTUS45 KSLC 251120
TAFSGU
TAF
KSGU 251120Z 2512/2612 VRB05KT P6SM SKC
      AMD LTD TO CLD VIS AND WIND=



000
FTUS45 KSLC 251120
TAFCDC
TAF
KCDC 251120Z 2512/2612 01004KT P6SM FEW040
     FM251600 VRB04KT P6SM SKC=



000
FTUS45 KSLC 251120
TAFLGU
TAF
KLGU 251120Z 2512/2612 VRB04KT P6SM OVC035
      TEMPO 2512/2515 4SM BR
     FM252300 VRB03KT P6SM SCT030 SCT100
     FM260900 00000KT 1SM BR BCFG FEW002=



000
FTUS45 KSLC 251120
TAFBCE
TAF
KBCE 251120Z 2512/2612 30009KT P6SM SKC=



000
FTUS45 KSLC 251120
TAFCDC
TAF
KCDC 251120Z 2512/2612 01004KT P6SM FEW040
     FM251600 VRB04KT P6SM SKC=



000
FTUS45 KSLC 251120
TAFSLC
TAF
KSLC 251120Z 2512/2618 16005KT P6SM OVC040
     FM252000 34006KT P6SM SCT050 SCT100
     FM260300 16006KT P6SM FEW050=



000
FTUS45 KSLC 251120
TAFENV
TAF
KENV 251120Z 2512/2612 VRB05KT P6SM FEW050 FEW100
      AMD LTD TO CLD VIS AND WIND=



000
FTUS45 KSLC 251120
TAFBCE
TAF
KBCE 251120Z 2512/2612 30009KT P6SM SKC=



000
FTUS45 KSLC 251120
TAFOGD
TAF
KOGD 251120Z 2512/2612 VRB05KT P6SM OVC040
     FM252200 VRB04KT P6SM SCT040 SCT100=



000
FTUS45 KSLC 250845 AAB
TAFSLC
TAF AMD
KSLC 250845Z 2509/2612 16005KT P6SM OVC040
     FM252100 34006KT P6SM SCT050 SCT100
     FM260300 16006KT P6SM FEW050=



000
FTUS45 KSLC 250845 AAB
TAFSLC
TAF AMD
KSLC 250845Z 2509/2612 16005KT P6SM OVC040
     FM252100 34006KT P6SM SCT050 SCT100
     FM260300 16006KT P6SM FEW050=



000
FTUS45 KSLC 250533
TAFENV
TAF
KENV 250533Z 2506/2606 VRB05KT P6SM SCT050
      AMD LTD TO CLD VIS AND WIND=



000
FTUS45 KSLC 250533
TAFPVU
TAF
KPVU 250533Z 2506/2606 VRB04KT P6SM OVC045
     FM252000 VRB04KT P6SM SCT040 SCT100
      AMD LTD TO CLD VIS AND WIND=



000
FTUS45 KSLC 250533
TAFSLC
TAF
KSLC 250533Z 2506/2612 16005KT P6SM OVC040
     FM252100 34006KT P6SM SCT050 SCT100
     FM260300 16006KT P6SM FEW050=



000
FTUS45 KSLC 250533
TAFENV
TAF
KENV 250533Z 2506/2606 VRB05KT P6SM SCT050
      AMD LTD TO CLD VIS AND WIND=



000
FTUS45 KSLC 250533
TAFCDC
TAF
KCDC 250533Z 2506/2606 34008KT P6SM FEW050
     FM251300 01004KT P6SM SKC=



000
FTUS45 KSLC 250533
TAFSGU
TAF
KSGU 250533Z 2506/2606 VRB05KT P6SM SKC
      AMD LTD TO CLD VIS AND WIND=



000
FTUS45 KSLC 250533
TAFOGD
TAF
KOGD 250533Z 2506/2606 VRB05KT P6SM OVC040
     FM252200 VRB04KT P6SM SCT040 SCT100=



000
FTUS45 KSLC 250533
TAFLGU
TAF
KLGU 250533Z 2506/2606 03005KT P6SM OVC035
     FM251100 10005KT P6SM OVC035
     FM252300 VRB03KT P6SM SCT030 SCT100=



000
FTUS45 KSLC 250533
TAFBCE
TAF
KBCE 250533Z 2506/2606 30009KT P6SM SKC=



000
FTUS45 KSLC 250533
TAFSGU
TAF
KSGU 250533Z 2506/2606 VRB05KT P6SM SKC
      AMD LTD TO CLD VIS AND WIND=



000
FTUS45 KSLC 250533
TAFCDC
TAF
KCDC 250533Z 2506/2606 34008KT P6SM FEW050
     FM251300 01004KT P6SM SKC=



000
FTUS45 KSLC 250533
TAFLGU
TAF
KLGU 250533Z 2506/2606 03005KT P6SM OVC035
     FM251100 10005KT P6SM OVC035
     FM252300 VRB03KT P6SM SCT030 SCT100=



000
FTUS45 KSLC 250312 AAA
TAFLGU
TAF AMD
KLGU 250312Z 2503/2524 03005KT P6SM SCT015 OVC030
     FM251100 10005KT P6SM SCT020 OVC035
     FM251500 VRB03KT P6SM SCT040 SCT100=



000
FTUS45 KSLC 250312 AAA
TAFLGU
TAF AMD
KLGU 250312Z 2503/2524 03005KT P6SM SCT015 OVC030
     FM251100 10005KT P6SM SCT020 OVC035
     FM251500 VRB03KT P6SM SCT040 SCT100=



000
FTUS45 KSLC 250311 AAA
TAFSLC
TAF AMD
KSLC 250311Z 2503/2606 33005KT P6SM OVC045
     FM251500 15006KT P6SM SCT050 SCT100=



000
FTUS45 KSLC 250311 AAA
TAFSLC
TAF AMD
KSLC 250311Z 2503/2606 33005KT P6SM OVC045
     FM251500 15006KT P6SM SCT050 SCT100=



000
FTUS45 KSLC 242320
TAFOGD
TAF
KOGD 242320Z 2500/2524 VRB05KT P6SM BKN050 BKN100
     FM251500 VRB05KT P6SM SCT050 SCT100=



000
FTUS45 KSLC 242320
TAFLGU
TAF
KLGU 242320Z 2500/2524 VRB03KT P6SM BKN040 BKN100
     FM251500 VRB03KT P6SM SCT040 SCT100=



000
FTUS45 KSLC 242320
TAFSLC
TAF
KSLC 242320Z 2500/2606 33005KT P6SM BKN050 BKN100
     FM250300 14006KT P6SM BKN050 BKN100
     FM251500 15006KT P6SM SCT050 SCT100=



000
FTUS45 KSLC 242320
TAFSLC
TAF
KSLC 242320Z 2500/2606 33005KT P6SM BKN050 BKN100
     FM250300 14006KT P6SM BKN050 BKN100
     FM251500 15006KT P6SM SCT050 SCT100=



000
FTUS45 KSLC 242320
TAFENV
TAF
KENV 242320Z 2500/2524 VRB05KT P6SM SCT060 BKN120
      AMD LTD TO CLD VIS AND WIND=



000
FTUS45 KSLC 242320
TAFENV
TAF
KENV 242320Z 2500/2524 VRB05KT P6SM SCT060 BKN120
      AMD LTD TO CLD VIS AND WIND=



000
FTUS45 KSLC 242320
TAFPVU
TAF
KPVU 242320Z 2500/2524 VRB04KT P6SM BKN070 BKN100
     FM251500 VRB04KT P6SM SCT070 SCT100
      AMD LTD TO CLD VIS AND WIND=



000
FTUS45 KSLC 242320
TAFCDC
TAF
KCDC 242320Z 2500/2524 VRB05KT P6SM SCT200
     FM250600 VRB04KT P6SM SKC=



000
FTUS45 KSLC 242320
TAFCDC
TAF
KCDC 242320Z 2500/2524 VRB05KT P6SM SCT200
     FM250600 VRB04KT P6SM SKC=



000
FTUS45 KSLC 242320
TAFSGU
TAF
KSGU 242320Z 2500/2524 VRB05KT P6SM SCT200
      AMD LTD TO CLD VIS AND WIND=



000
FTUS45 KSLC 242320
TAFBCE
TAF
KBCE 242320Z 2500/2524 03010KT P6SM SCT200
     FM250300 32009KT P6SM SCT200=



000
FTUS45 KSLC 242320
TAFBCE
TAF
KBCE 242320Z 2500/2524 03010KT P6SM SCT200
     FM250300 32009KT P6SM SCT200=



000
FTUS45 KSLC 242320
TAFPVU
TAF
KPVU 242320Z 2500/2524 VRB04KT P6SM BKN070 BKN100
     FM251500 VRB04KT P6SM SCT070 SCT100
      AMD LTD TO CLD VIS AND WIND=



000
FTUS45 KSLC 242320
TAFSGU
TAF
KSGU 242320Z 2500/2524 VRB05KT P6SM SCT200
      AMD LTD TO CLD VIS AND WIND=



000
FTUS45 KSLC 242241 AAC
TAFSLC
TAF AMD
KSLC 242241Z 2423/2524 33005KT P6SM BKN050 BKN100
     FM250300 14006KT P6SM BKN050 BKN100
     FM251200 15006KT P6SM SCT050 BKN100=



000
FTUS45 KSLC 242028 AAB
TAFSLC
TAF AMD
KSLC 242028Z 2420/2524 33005KT P6SM BKN060 BKN100
     FM250300 14006KT P6SM FEW060 SCT120=



000
FTUS45 KSLC 242028 AAB
TAFSLC
TAF AMD
KSLC 242028Z 2420/2524 33005KT P6SM BKN060 BKN100
     FM250300 14006KT P6SM FEW060 SCT120=



000
FTUS45 KSLC 241723
TAFENV
TAF
KENV 241723Z 2418/2518 VRB05KT P6SM SCT060 BKN120
      AMD LTD TO CLD VIS AND WIND=



000
FTUS45 KSLC 241723
TAFSGU
TAF
KSGU 241723Z 2418/2518 VRB05KT P6SM SKC
      AMD LTD TO CLD VIS AND WIND=



000
FTUS45 KSLC 241723
TAFBCE
TAF
KBCE 241723Z 2418/2518 01005KT P6SM SKC
     FM250900 29009KT P6SM SKC=



000
FTUS45 KSLC 241723
TAFLGU
TAF
KLGU 241723Z 2418/2518 VRB03KT P6SM BKN040 BKN100=



000
FTUS45 KSLC 241723
TAFSLC
TAF
KSLC 241723Z 2418/2524 17005KT P6SM SCT060 SCT100
     FM241830 33005KT P6SM SCT060 BKN100
     FM250300 14006KT P6SM FEW060 SCT120=



000
FTUS45 KSLC 241723
TAFOGD
TAF
KOGD 241723Z 2418/2518 VRB05KT P6SM BKN050 BKN100=



000
FTUS45 KSLC 241723
TAFCDC
TAF
KCDC 241723Z 2418/2518 36008KT P6SM SKC
     FM250600 VRB04KT P6SM SKC=



000
FTUS45 KSLC 241723
TAFPVU
TAF
KPVU 241723Z 2418/2518 VRB04KT P6SM BKN120
      AMD LTD TO CLD VIS AND WIND=



000
FTUS45 KSLC 241723
TAFCDC
TAF
KCDC 241723Z 2418/2518 36008KT P6SM SKC
     FM250600 VRB04KT P6SM SKC=



000
FTUS45 KSLC 241723
TAFLGU
TAF
KLGU 241723Z 2418/2518 VRB03KT P6SM BKN040 BKN100=



000
FTUS45 KSLC 241723
TAFBCE
TAF
KBCE 241723Z 2418/2518 01005KT P6SM SKC
     FM250900 29009KT P6SM SKC=



000
FTUS45 KSLC 241723
TAFSLC
TAF
KSLC 241723Z 2418/2524 17005KT P6SM SCT060 SCT100
     FM241830 33005KT P6SM SCT060 BKN100
     FM250300 14006KT P6SM FEW060 SCT120=



000
FTUS45 KSLC 241723
TAFOGD
TAF
KOGD 241723Z 2418/2518 VRB05KT P6SM BKN050 BKN100=



000
FTUS45 KSLC 241723
TAFSGU
TAF
KSGU 241723Z 2418/2518 VRB05KT P6SM SKC
      AMD LTD TO CLD VIS AND WIND=



000
FTUS45 KSLC 241723
TAFENV
TAF
KENV 241723Z 2418/2518 VRB05KT P6SM SCT060 BKN120
      AMD LTD TO CLD VIS AND WIND=



000
FTUS45 KSLC 241723
TAFPVU
TAF
KPVU 241723Z 2418/2518 VRB04KT P6SM BKN120
      AMD LTD TO CLD VIS AND WIND=



000
FTUS45 KSLC 241506 AAA
TAFSLC
TAF AMD
KSLC 241506Z 2415/2518 16005KT P6SM SCT150
     FM241800 33006KT P6SM SCT060 SCT120
     FM250300 14006KT P6SM FEW060 SCT120=



000
FTUS45 KSLC 241506 AAA
TAFSLC
TAF AMD
KSLC 241506Z 2415/2518 16005KT P6SM SCT150
     FM241800 33006KT P6SM SCT060 SCT120
     FM250300 14006KT P6SM FEW060 SCT120=



000
FTUS45 KSLC 241120
TAFOGD
TAF
KOGD 241120Z 2412/2512 17006KT P6SM SCT150
     FM241900 30006KT P6SM SCT060 SCT120
     FM250300 17005KT P6SM SCT060 SCT120=



000
FTUS45 KSLC 241120
TAFLGU
TAF
KLGU 241120Z 2412/2512 VRB03KT P6SM SCT150
     FM241800 VRB03KT P6SM SCT050 BKN100=



000
FTUS45 KSLC 241120
TAFENV
TAF
KENV 241120Z 2412/2512 VRB05KT P6SM FEW100
      AMD LTD TO CLD VIS AND WIND=



000
FTUS45 KSLC 241120
TAFPVU
TAF
KPVU 241120Z 2412/2512 VRB04KT P6SM FEW150
     FM241900 34004KT P6SM SCT060 SCT120
     FM250200 VRB03KT P6SM FEW060 FEW120
      AMD LTD TO CLD VIS AND WIND=



000
FTUS45 KSLC 241120
TAFLGU
TAF
KLGU 241120Z 2412/2512 VRB03KT P6SM SCT150
     FM241800 VRB03KT P6SM SCT050 BKN100=



000
FTUS45 KSLC 241120
TAFBCE
TAF
KBCE 241120Z 2412/2512 26009KT P6SM SKC
     FM241700 36010KT P6SM SKC
     FM250900 26009KT P6SM SKC=



000
FTUS45 KSLC 241120
TAFSLC
TAF
KSLC 241120Z 2412/2518 16005KT P6SM SCT150
     FM241800 33006KT P6SM SCT060 SCT120
     FM250300 14006KT P6SM FEW060 SCT120=



000
FTUS45 KSLC 241120
TAFOGD
TAF
KOGD 241120Z 2412/2512 17006KT P6SM SCT150
     FM241900 30006KT P6SM SCT060 SCT120
     FM250300 17005KT P6SM SCT060 SCT120=



000
FTUS45 KSLC 241120
TAFCDC
TAF
KCDC 241120Z 2412/2512 VRB04KT P6SM SKC
     FM241800 36008KT P6SM SKC
     FM250600 VRB04KT P6SM SKC=



000
FTUS45 KSLC 241120
TAFSLC
TAF
KSLC 241120Z 2412/2518 16005KT P6SM SCT150
     FM241800 33006KT P6SM SCT060 SCT120
     FM250300 14006KT P6SM FEW060 SCT120=



000
FTUS45 KSLC 241120
TAFENV
TAF
KENV 241120Z 2412/2512 VRB05KT P6SM FEW100
      AMD LTD TO CLD VIS AND WIND=



000
FTUS45 KSLC 241120
TAFPVU
TAF
KPVU 241120Z 2412/2512 VRB04KT P6SM FEW150
     FM241900 34004KT P6SM SCT060 SCT120
     FM250200 VRB03KT P6SM FEW060 FEW120
      AMD LTD TO CLD VIS AND WIND=



000
FTUS45 KSLC 241120
TAFCDC
TAF
KCDC 241120Z 2412/2512 VRB04KT P6SM SKC
     FM241800 36008KT P6SM SKC
     FM250600 VRB04KT P6SM SKC=



000
FTUS45 KSLC 241120
TAFSGU
TAF
KSGU 241120Z 2412/2512 04012G18KT P6SM SKC
     FM241400 27005KT P6SM SKC
     FM250200 03014KT P6SM SKC
      AMD LTD TO CLD VIS AND WIND=



000
FTUS45 KSLC 241120
TAFSGU
TAF
KSGU 241120Z 2412/2512 04012G18KT P6SM SKC
     FM241400 27005KT P6SM SKC
     FM250200 03014KT P6SM SKC
      AMD LTD TO CLD VIS AND WIND=



000
FTUS45 KSLC 241120
TAFBCE
TAF
KBCE 241120Z 2412/2512 26009KT P6SM SKC
     FM241700 36010KT P6SM SKC
     FM250900 26009KT P6SM SKC=



000
FTUS45 KSLC 240905 AAA
TAFSLC
TAF AMD
KSLC 240905Z 2409/2512 16005KT P6SM SKC
     FM241800 33006KT P6SM SCT060 SCT120
     FM250300 14006KT P6SM FEW060=



000
FTUS45 KSLC 240905 AAA
TAFSLC
TAF AMD
KSLC 240905Z 2409/2512 16005KT P6SM SKC
     FM241800 33006KT P6SM SCT060 SCT120
     FM250300 14006KT P6SM FEW060=



000
FTUS45 KSLC 240520
TAFSLC
TAF
KSLC 240520Z 2406/2512 16005KT P6SM SKC
     FM241800 33006KT P6SM SCT060 SCT120
     FM250300 14006KT P6SM FEW060=



000
FTUS45 KSLC 240520
TAFLGU
TAF
KLGU 240520Z 2406/2506 VRB03KT P6SM SKC
     FM241800 VRB03KT P6SM SCT050 SCT120=



000
FTUS45 KSLC 240520
TAFCDC
TAF
KCDC 240520Z 2406/2506 36008KT P6SM SKC
     FM250300 01005KT P6SM SKC=



000
FTUS45 KSLC 240520
TAFOGD
TAF
KOGD 240520Z 2406/2506 17006KT P6SM SKC
     FM241900 30006KT P6SM SCT060 SCT120
     FM250300 17005KT P6SM FEW060=



000
FTUS45 KSLC 240520
TAFPVU
TAF
KPVU 240520Z 2406/2506 VRB04KT P6SM SKC
     FM241900 34004KT P6SM SCT060
     FM250200 VRB03KT P6SM FEW006
      AMD LTD TO CLD VIS AND WIND=



000
FTUS45 KSLC 240520
TAFCDC
TAF
KCDC 240520Z 2406/2506 36008KT P6SM SKC
     FM250300 01005KT P6SM SKC=



000
FTUS45 KSLC 240520
TAFPVU
TAF
KPVU 240520Z 2406/2506 VRB04KT P6SM SKC
     FM241900 34004KT P6SM SCT060
     FM250200 VRB03KT P6SM FEW006
      AMD LTD TO CLD VIS AND WIND=



000
FTUS45 KSLC 240520
TAFENV
TAF
KENV 240520Z 2406/2506 VRB05KT P6SM FEW100
      AMD LTD TO CLD VIS AND WIND=



000
FTUS45 KSLC 240520
TAFOGD
TAF
KOGD 240520Z 2406/2506 17006KT P6SM SKC
     FM241900 30006KT P6SM SCT060 SCT120
     FM250300 17005KT P6SM FEW060=



000
FTUS45 KSLC 240520
TAFLGU
TAF
KLGU 240520Z 2406/2506 VRB03KT P6SM SKC
     FM241800 VRB03KT P6SM SCT050 SCT120=



000
FTUS45 KSLC 240520
TAFSLC
TAF
KSLC 240520Z 2406/2512 16005KT P6SM SKC
     FM241800 33006KT P6SM SCT060 SCT120
     FM250300 14006KT P6SM FEW060=



000
FTUS45 KSLC 240520
TAFENV
TAF
KENV 240520Z 2406/2506 VRB05KT P6SM FEW100
      AMD LTD TO CLD VIS AND WIND=



000
FTUS45 KSLC 240520
TAFBCE
TAF
KBCE 240520Z 2406/2506 36010KT P6SM SKC=



000
FTUS45 KSLC 240520
TAFBCE
TAF
KBCE 240520Z 2406/2506 36010KT P6SM SKC=



000
FTUS45 KSLC 240520
TAFSGU
TAF
KSGU 240520Z 2406/2506 04014G22KT P6SM SKC
     FM240800 VRB04KT P6SM SKC
     FM250200 03014KT P6SM SKC
      AMD LTD TO CLD VIS AND WIND=



000
FTUS45 KSLC 240520
TAFSGU
TAF
KSGU 240520Z 2406/2506 04014G22KT P6SM SKC
     FM240800 VRB04KT P6SM SKC
     FM250200 03014KT P6SM SKC
      AMD LTD TO CLD VIS AND WIND=



000
FTUS45 KSLC 240312 AAC
TAFSLC
TAF AMD
KSLC 240312Z 2403/2506 16005KT P6SM SKC
     FM241800 33006KT P6SM SCT070 BKN120
     FM250300 14006KT P6SM SCT070 BKN120=



000
FTUS45 KSLC 240312 AAC
TAFSLC
TAF AMD
KSLC 240312Z 2403/2506 16005KT P6SM SKC
     FM241800 33006KT P6SM SCT070 BKN120
     FM250300 14006KT P6SM SCT070 BKN120=



000
FTUS45 KSLC 240311 AAB
TAFSGU
TAF AMD
KSGU 240311Z 2403/2424 04014G22KT P6SM SKC
     FM240800 VRB04KT P6SM SKC
      AMD LTD TO CLD VIS AND WIND=



000
FTUS45 KSLC 240311 AAB
TAFSGU
TAF AMD
KSGU 240311Z 2403/2424 04014G22KT P6SM SKC
     FM240800 VRB04KT P6SM SKC
      AMD LTD TO CLD VIS AND WIND=



000
FTUS45 KSLC 240310 AAB
TAFCDC
TAF AMD
KCDC 240310Z 2403/2424 03011KT P6SM SCT150
     FM241800 34008KT P6SM SCT150=



000
FTUS45 KSLC 240310 AAB
TAFCDC
TAF AMD
KCDC 240310Z 2403/2424 03011KT P6SM SCT150
     FM241800 34008KT P6SM SCT150=



000
FTUS45 KSLC 240251 AAA
TAFSGU
TAF AMD
KSGU 240251Z 2403/2424 01012G20KT P6SM SCT200
     FM240600 VRB04KT P6SM SCT200
      AMD LTD TO CLD VIS AND WIND=



000
FTUS45 KSLC 240251 AAA
TAFSGU
TAF AMD
KSGU 240251Z 2403/2424 01012G20KT P6SM SCT200
     FM240600 VRB04KT P6SM SCT200
      AMD LTD TO CLD VIS AND WIND=



000
FTUS45 KSLC 240109 AAA
TAFCDC
TAF AMD
KCDC 240109Z 2401/2424 35008KT P6SM BKN050 BKN150
     FM240300 VRB04KT P6SM SCT150
     FM241800 34008KT P6SM SCT150=



000
FTUS45 KSLC 240109 AAA
TAFCDC
TAF AMD
KCDC 240109Z 2401/2424 35008KT P6SM BKN050 BKN150
     FM240300 VRB04KT P6SM SCT150
     FM241800 34008KT P6SM SCT150=



000
FTUS45 KSLC 232320
TAFPVU
TAF
KPVU 232320Z 2400/2424 VRB04KT P6SM SCT070 SCT100
      AMD LTD TO CLD VIS AND WIND=



000
FTUS45 KSLC 232320
TAFLGU
TAF
KLGU 232320Z 2400/2424 VRB03KT P6SM BKN050 BKN100
     FM240200 00000KT P6SM SCT050=



000
FTUS45 KSLC 232320
TAFENV
TAF
KENV 232320Z 2400/2424 VRB05KT P6SM SCT100
      AMD LTD TO CLD VIS AND WIND=



000
FTUS45 KSLC 232320
TAFOGD
TAF
KOGD 232320Z 2400/2424 32008KT P6SM FEW120
     FM240300 17006KT P6SM SCT060 SCT120
     FM241900 30006KT P6SM SCT060 BKN120=



000
FTUS45 KSLC 232320
TAFSGU
TAF
KSGU 232320Z 2400/2424 VRB05KT P6SM SCT200
      AMD LTD TO CLD VIS AND WIND=



000
FTUS45 KSLC 232320
TAFCDC
TAF
KCDC 232320Z 2400/2424 35012G20KT P6SM SCT150
     FM240300 VRB04KT P6SM SCT150
     FM241800 34008KT P6SM SCT150=



000
FTUS45 KSLC 232320
TAFBCE
TAF
KBCE 232320Z 2400/2424 32010KT P6SM SCT150=



000
FTUS45 KSLC 232320
TAFSLC
TAF
KSLC 232320Z 2400/2506 35008KT P6SM SCT070 SCT120
     FM240400 16005KT P6SM SCT070 SCT100
     FM241800 33006KT P6SM SCT070 BKN120
     FM250300 14006KT P6SM SCT070 BKN120=



000
FTUS45 KSLC 232320
TAFSGU
TAF
KSGU 232320Z 2400/2424 VRB05KT P6SM SCT200
      AMD LTD TO CLD VIS AND WIND=



000
FTUS45 KSLC 232320
TAFENV
TAF
KENV 232320Z 2400/2424 VRB05KT P6SM SCT100
      AMD LTD TO CLD VIS AND WIND=



000
FTUS45 KSLC 232320
TAFOGD
TAF
KOGD 232320Z 2400/2424 32008KT P6SM FEW120
     FM240300 17006KT P6SM SCT060 SCT120
     FM241900 30006KT P6SM SCT060 BKN120=



000
FTUS45 KSLC 232320
TAFCDC
TAF
KCDC 232320Z 2400/2424 35012G20KT P6SM SCT150
     FM240300 VRB04KT P6SM SCT150
     FM241800 34008KT P6SM SCT150=



000
FTUS45 KSLC 232320
TAFPVU
TAF
KPVU 232320Z 2400/2424 VRB04KT P6SM SCT070 SCT100
      AMD LTD TO CLD VIS AND WIND=



000
FTUS45 KSLC 232320
TAFLGU
TAF
KLGU 232320Z 2400/2424 VRB03KT P6SM BKN050 BKN100
     FM240200 00000KT P6SM SCT050=



000
FTUS45 KSLC 232320
TAFSLC
TAF
KSLC 232320Z 2400/2506 35008KT P6SM SCT070 SCT120
     FM240400 16005KT P6SM SCT070 SCT100
     FM241800 33006KT P6SM SCT070 BKN120
     FM250300 14006KT P6SM SCT070 BKN120=



000
FTUS45 KSLC 232320
TAFBCE
TAF
KBCE 232320Z 2400/2424 32010KT P6SM SCT150=



000
FTUS45 KSLC 232104 AAA
TAFSLC
TAF AMD
KSLC 232104Z 2321/2424 35005KT P6SM SCT070 BKN100
     FM240400 16005KT P6SM SCT070 SCT100=



000
FTUS45 KSLC 232104 AAA
TAFSLC
TAF AMD
KSLC 232104Z 2321/2424 35005KT P6SM SCT070 BKN100
     FM240400 16005KT P6SM SCT070 SCT100=



000
FTUS45 KSLC 231720
TAFLGU
TAF
KLGU 231720Z 2318/2418 VRB03KT P6SM BKN080 BKN100
     FM240200 00000KT P6SM SCT080=



000
FTUS45 KSLC 231720
TAFSGU
TAF
KSGU 231720Z 2318/2418 VRB05KT P6SM SCT200
      AMD LTD TO CLD VIS AND WIND=



000
FTUS45 KSLC 231720
TAFSLC
TAF
KSLC 231720Z 2318/2424 35005KT P6SM SCT070 BKN100
     FM240400 16005KT P6SM SCT070 SCT100=



000
FTUS45 KSLC 231720
TAFLGU
TAF
KLGU 231720Z 2318/2418 VRB03KT P6SM BKN080 BKN100
     FM240200 00000KT P6SM SCT080=



000
FTUS45 KSLC 231720
TAFCDC
TAF
KCDC 231720Z 2318/2418 VRB04KT P6SM SCT150=



000
FTUS45 KSLC 231720
TAFSGU
TAF
KSGU 231720Z 2318/2418 VRB05KT P6SM SCT200
      AMD LTD TO CLD VIS AND WIND=



000
FTUS45 KSLC 231720
TAFENV
TAF
KENV 231720Z 2318/2418 VRB05KT P6SM SCT060 SCT100
      AMD LTD TO CLD VIS AND WIND=



000
FTUS45 KSLC 231720
TAFENV
TAF
KENV 231720Z 2318/2418 VRB05KT P6SM SCT060 SCT100
      AMD LTD TO CLD VIS AND WIND=



000
FTUS45 KSLC 231720
TAFOGD
TAF
KOGD 231720Z 2318/2418 VRB05KT P6SM SCT080 BKN100=



000
FTUS45 KSLC 231720
TAFSLC
TAF
KSLC 231720Z 2318/2424 35005KT P6SM SCT070 BKN100
     FM240400 16005KT P6SM SCT070 SCT100=



000
FTUS45 KSLC 231720
TAFOGD
TAF
KOGD 231720Z 2318/2418 VRB05KT P6SM SCT080 BKN100=



000
FTUS45 KSLC 231720
TAFBCE
TAF
KBCE 231720Z 2318/2418 34010KT P6SM SCT150=



000
FTUS45 KSLC 231720
TAFBCE
TAF
KBCE 231720Z 2318/2418 34010KT P6SM SCT150=



000
FTUS45 KSLC 231720
TAFPVU
TAF
KPVU 231720Z 2318/2418 VRB04KT P6SM SCT070 SCT100
      AMD LTD TO CLD VIS AND WIND=



000
FTUS45 KSLC 231720
TAFCDC
TAF
KCDC 231720Z 2318/2418 VRB04KT P6SM SCT150=



000
FTUS45 KSLC 231720
TAFPVU
TAF
KPVU 231720Z 2318/2418 VRB04KT P6SM SCT070 SCT100
      AMD LTD TO CLD VIS AND WIND=



000
FTUS45 KSLC 231629 AAB
TAFSLC
TAF AMD
KSLC 231629Z 2316/2418 35005KT P6SM SCT120
     FM240400 16005KT P6SM FEW120=



000
FTUS45 KSLC 231629 AAB
TAFSLC
TAF AMD
KSLC 231629Z 2316/2418 35005KT P6SM SCT120
     FM240400 16005KT P6SM FEW120=



000
FTUS45 KSLC 231505 AAA
TAFSLC
TAF AMD
KSLC 231505Z 2315/2418 15004KT P6SM BKN200
     FM231700 33008KT P6SM SCT120
     FM240400 16005KT P6SM FEW120=



000
FTUS45 KSLC 231505 AAA
TAFSLC
TAF AMD
KSLC 231505Z 2315/2418 15004KT P6SM BKN200
     FM231700 33008KT P6SM SCT120
     FM240400 16005KT P6SM FEW120=



000
FTUS45 KSLC 231120
TAFPVU
TAF
KPVU 231120Z 2312/2412 VRB04KT P6SM SCT120
     FM240400 00000KT P6SM SKC
      AMD LTD TO CLD VIS AND WIND=



000
FTUS45 KSLC 231120
TAFBCE
TAF
KBCE 231120Z 2312/2412 29005KT P6SM SKC
     FM231700 34010G16KT P6SM SCT150
     FM240100 36010KT P6SM SCT080=



000
FTUS45 KSLC 231120
TAFSGU
TAF
KSGU 231120Z 2312/2412 VRB05KT P6SM SCT200
      AMD LTD TO CLD VIS AND WIND=



000
FTUS45 KSLC 231120
TAFCDC
TAF
KCDC 231120Z 2312/2412 VRB04KT P6SM SCT150=



000
FTUS45 KSLC 231120
TAFBCE
TAF
KBCE 231120Z 2312/2412 29005KT P6SM SKC
     FM231700 34010G16KT P6SM SCT150
     FM240100 36010KT P6SM SCT080=



000
FTUS45 KSLC 231120
TAFSLC
TAF
KSLC 231120Z 2312/2418 15004KT P6SM BKN200
     FM231700 33008KT P6SM SCT120
     FM240400 16005KT P6SM FEW120=



000
FTUS45 KSLC 231120
TAFENV
TAF
KENV 231120Z 2312/2412 VRB05KT P6SM SKC
      AMD LTD TO CLD VIS AND WIND=



000
FTUS45 KSLC 231120
TAFOGD
TAF
KOGD 231120Z 2312/2412 18005KT P6SM FEW150
     FM231600 33006KT P6SM SCT120
     FM240400 17005KT P6SM SKC=



000
FTUS45 KSLC 231120
TAFSLC
TAF
KSLC 231120Z 2312/2418 15004KT P6SM BKN200
     FM231700 33008KT P6SM SCT120
     FM240400 16005KT P6SM FEW120=



000
FTUS45 KSLC 231120
TAFENV
TAF
KENV 231120Z 2312/2412 VRB05KT P6SM SKC
      AMD LTD TO CLD VIS AND WIND=



000
FTUS45 KSLC 231120
TAFCDC
TAF
KCDC 231120Z 2312/2412 VRB04KT P6SM SCT150=



000
FTUS45 KSLC 231120
TAFLGU
TAF
KLGU 231120Z 2312/2412 VRB03KT P6SM SCT150
     FM240200 00000KT P6SM SKC=



000
FTUS45 KSLC 231120
TAFOGD
TAF
KOGD 231120Z 2312/2412 18005KT P6SM FEW150
     FM231600 33006KT P6SM SCT120
     FM240400 17005KT P6SM SKC=



000
FTUS45 KSLC 231120
TAFLGU
TAF
KLGU 231120Z 2312/2412 VRB03KT P6SM SCT150
     FM240200 00000KT P6SM SKC=



000
FTUS45 KSLC 231120
TAFPVU
TAF
KPVU 231120Z 2312/2412 VRB04KT P6SM SCT120
     FM240400 00000KT P6SM SKC
      AMD LTD TO CLD VIS AND WIND=



000
FTUS45 KSLC 231120
TAFSGU
TAF
KSGU 231120Z 2312/2412 VRB05KT P6SM SCT200
      AMD LTD TO CLD VIS AND WIND=



000
FTUS45 KSLC 230906 AAA
TAFSLC
TAF AMD
KSLC 230906Z 2309/2412 15004KT P6SM BKN200
     FM231700 33008KT P6SM BKN110
     FM240400 16005KT P6SM FEW110=



000
FTUS45 KSLC 230906 AAA
TAFSLC
TAF AMD
KSLC 230906Z 2309/2412 15004KT P6SM BKN200
     FM231700 33008KT P6SM BKN110
     FM240400 16005KT P6SM FEW110=



000
FTUS45 KSLC 230535
TAFENV
TAF
KENV 230535Z 2306/2406 VRB05KT P6SM BKN150
     FM231800 04006KT P6SM SCT100
     FM240200 VRB03KT P6SM SKC
      AMD LTD TO CLD VIS AND WIND=



000
FTUS45 KSLC 230535
TAFSGU
TAF
KSGU 230535Z 2306/2406 VRB05KT P6SM SCT200
      AMD LTD TO CLD VIS AND WIND=



000
FTUS45 KSLC 230535
TAFPVU
TAF
KPVU 230535Z 2306/2406 VRB04KT P6SM BKN150
     FM231800 VRB04KT P6SM BKN100
     FM240400 00000KT P6SM SKC
      AMD LTD TO CLD VIS AND WIND=



000
FTUS45 KSLC 230535
TAFENV
TAF
KENV 230535Z 2306/2406 VRB05KT P6SM BKN150
     FM231800 04006KT P6SM SCT100
     FM240200 VRB03KT P6SM SKC
      AMD LTD TO CLD VIS AND WIND=



000
FTUS45 KSLC 230535
TAFLGU
TAF
KLGU 230535Z 2306/2406 00000KT P6SM BKN150
     FM231200 VRB03KT P6SM BKN100
     FM240200 00000KT P6SM SKC=



000
FTUS45 KSLC 230535
TAFCDC
TAF
KCDC 230535Z 2306/2406 VRB04KT P6SM SCT150=



000
FTUS45 KSLC 230535
TAFSLC
TAF
KSLC 230535Z 2306/2412 15004KT P6SM BKN150
     FM231700 33008KT P6SM BKN100
     FM240400 16005KT P6SM FEW100=



000
FTUS45 KSLC 230535
TAFOGD
TAF
KOGD 230535Z 2306/2406 18005KT P6SM BKN150
     FM231600 33006KT P6SM BKN100
     FM240300 17005KT P6SM SKC=



000
FTUS45 KSLC 230535
TAFSLC
TAF
KSLC 230535Z 2306/2412 15004KT P6SM BKN150
     FM231700 33008KT P6SM BKN100
     FM240400 16005KT P6SM FEW100=



000
FTUS45 KSLC 230535
TAFCDC
TAF
KCDC 230535Z 2306/2406 VRB04KT P6SM SCT150=



000
FTUS45 KSLC 230535
TAFBCE
TAF
KBCE 230535Z 2306/2406 29005KT P6SM SKC
     FM231700 34010G16KT P6SM SCT150
     FM240100 36010KT P6SM SCT080=



000
FTUS45 KSLC 230535
TAFSGU
TAF
KSGU 230535Z 2306/2406 VRB05KT P6SM SCT200
      AMD LTD TO CLD VIS AND WIND=



000
FTUS45 KSLC 230535
TAFBCE
TAF
KBCE 230535Z 2306/2406 29005KT P6SM SKC
     FM231700 34010G16KT P6SM SCT150
     FM240100 36010KT P6SM SCT080=



000
FTUS45 KSLC 230535
TAFPVU
TAF
KPVU 230535Z 2306/2406 VRB04KT P6SM BKN150
     FM231800 VRB04KT P6SM BKN100
     FM240400 00000KT P6SM SKC
      AMD LTD TO CLD VIS AND WIND=



000
FTUS45 KSLC 230535
TAFLGU
TAF
KLGU 230535Z 2306/2406 00000KT P6SM BKN150
     FM231200 VRB03KT P6SM BKN100
     FM240200 00000KT P6SM SKC=



000
FTUS45 KSLC 230535
TAFOGD
TAF
KOGD 230535Z 2306/2406 18005KT P6SM BKN150
     FM231600 33006KT P6SM BKN100
     FM240300 17005KT P6SM SKC=



000
FTUS45 KSLC 230310 AAA
TAFSLC
TAF AMD
KSLC 230310Z 2303/2406 33005KT P6SM SCT200
     FM230400 15006KT P6SM SCT120 BKN200
     FM231500 33008KT P6SM SCT050 BKN080
     FM240300 16005KT P6SM SCT080 SCT150=



000
FTUS45 KSLC 230310 AAA
TAFSLC
TAF AMD
KSLC 230310Z 2303/2406 33005KT P6SM SCT200
     FM230400 15006KT P6SM SCT120 BKN200
     FM231500 33008KT P6SM SCT050 BKN080
     FM240300 16005KT P6SM SCT080 SCT150=



000
FTUS45 KSLC 222331
TAFOGD
TAF
KOGD 222331Z 2300/2324 29006KT P6SM FEW200
     FM230400 17006KT P6SM SCT060 BKN120
     FM231800 33006KT P6SM SCT080 BKN150=



000
FTUS45 KSLC 222331
TAFBCE
TAF
KBCE 222331Z 2300/2324 14009KT P6SM SKC
     FM230300 28007KT P6SM SCT150=



000
FTUS45 KSLC 222331
TAFENV
TAF
KENV 222331Z 2300/2324 VRB05KT P6SM BKN150
     FM231800 06006KT P6SM SCT150
      AMD LTD TO CLD VIS AND WIND=



000
FTUS45 KSLC 222331
TAFSLC
TAF
KSLC 222331Z 2300/2406 32005KT P6SM SCT200
     FM230300 15006KT P6SM SCT120 BKN200
     FM231500 33008KT P6SM SCT050 BKN080
     FM240300 16005KT P6SM SCT080 SCT150=



000
FTUS45 KSLC 222331
TAFPVU
TAF
KPVU 222331Z 2300/2324 VRB04KT P6SM SCT060 BKN150
      AMD LTD TO CLD VIS AND WIND=



000
FTUS45 KSLC 222331
TAFLGU
TAF
KLGU 222331Z 2300/2324 VRB03KT P6SM FEW200
     FM230900 VRB03KT P6SM SCT060 BKN100=



000
FTUS45 KSLC 222331
TAFOGD
TAF
KOGD 222331Z 2300/2324 29006KT P6SM FEW200
     FM230400 17006KT P6SM SCT060 BKN120
     FM231800 33006KT P6SM SCT080 BKN150=



000
FTUS45 KSLC 222331
TAFSGU
TAF
KSGU 222331Z 2300/2324 VRB05KT P6SM SCT150
      AMD LTD TO CLD VIS AND WIND=



000
FTUS45 KSLC 222331
TAFCDC
TAF
KCDC 222331Z 2300/2324 VRB04KT P6SM SCT070 BKN150=



000
FTUS45 KSLC 222105 AAA
TAFSLC
TAF AMD
KSLC 222105Z 2221/2324 32005KT P6SM SCT200
     FM230300 15006KT P6SM SCT120 BKN200
     FM231500 33008KT P6SM SCT050 BKN080=



000
FTUS45 KSLC 222105 AAA
TAFSLC
TAF AMD
KSLC 222105Z 2221/2324 32005KT P6SM SCT200
     FM230300 15006KT P6SM SCT120 BKN200
     FM231500 33008KT P6SM SCT050 BKN080=



000
FTUS45 KSLC 221723
TAFBCE
TAF
KBCE 221723Z 2218/2318 30010KT P6SM SKC=



000
FTUS45 KSLC 221723
TAFBCE
TAF
KBCE 221723Z 2218/2318 30010KT P6SM SKC=



000
FTUS45 KSLC 221723
TAFCDC
TAF
KCDC 221723Z 2218/2318 02006KT P6SM SKC
     FM230100 VRB03KT P6SM SCT200
     FM231700 01008KT P6SM SCT070 BKN120=



000
FTUS45 KSLC 221723
TAFOGD
TAF
KOGD 221723Z 2218/2318 17006KT P6SM SKC
     FM222100 29006KT P6SM FEW200
     FM230200 17006KT P6SM SCT200=



000
FTUS45 KSLC 221723
TAFENV
TAF
KENV 221723Z 2218/2318 VRB05KT P6SM FEW200
      AMD LTD TO CLD VIS AND WIND=



000
FTUS45 KSLC 221723
TAFSGU
TAF
KSGU 221723Z 2218/2318 VRB05KT P6SM SKC
      AMD LTD TO CLD VIS AND WIND=



000
FTUS45 KSLC 221723
TAFLGU
TAF
KLGU 221723Z 2218/2318 VRB03KT P6SM FEW200=



000
FTUS45 KSLC 221723
TAFPVU
TAF
KPVU 221723Z 2218/2318 14007KT P6SM SCT200
      AMD LTD TO CLD VIS AND WIND=



000
FTUS45 KSLC 221723
TAFOGD
TAF
KOGD 221723Z 2218/2318 17006KT P6SM SKC
     FM222100 29006KT P6SM FEW200
     FM230200 17006KT P6SM SCT200=



000
FTUS45 KSLC 221723
TAFSLC
TAF
KSLC 221723Z 2218/2324 14007KT P6SM FEW200
     FM221900 32006KT P6SM SCT200
     FM230300 15006KT P6SM SCT120 BKN200
     FM231500 33008KT P6SM SCT050 BKN080=



000
FTUS45 KSLC 221723
TAFSLC
TAF
KSLC 221723Z 2218/2324 14007KT P6SM FEW200
     FM221900 32006KT P6SM SCT200
     FM230300 15006KT P6SM SCT120 BKN200
     FM231500 33008KT P6SM SCT050 BKN080=



000
FTUS45 KSLC 221723
TAFLGU
TAF
KLGU 221723Z 2218/2318 VRB03KT P6SM FEW200=



000
FTUS45 KSLC 221723
TAFSGU
TAF
KSGU 221723Z 2218/2318 VRB05KT P6SM SKC
      AMD LTD TO CLD VIS AND WIND=



000
FTUS45 KSLC 221723
TAFCDC
TAF
KCDC 221723Z 2218/2318 02006KT P6SM SKC
     FM230100 VRB03KT P6SM SCT200
     FM231700 01008KT P6SM SCT070 BKN120=



000
FTUS45 KSLC 221723
TAFPVU
TAF
KPVU 221723Z 2218/2318 14007KT P6SM SCT200
      AMD LTD TO CLD VIS AND WIND=



000
FTUS45 KSLC 221723
TAFENV
TAF
KENV 221723Z 2218/2318 VRB05KT P6SM FEW200
      AMD LTD TO CLD VIS AND WIND=



000
FTUS45 KSLC 221506 AAB
TAFSLC
TAF AMD
KSLC 221506Z 2215/2318 14007KT P6SM FEW200
     FM221900 33005KT P6SM FEW200
     FM230300 15006KT P6SM SCT200=



000
FTUS45 KSLC 221506 AAB
TAFSLC
TAF AMD
KSLC 221506Z 2215/2318 14007KT P6SM FEW200
     FM221900 33005KT P6SM FEW200
     FM230300 15006KT P6SM SCT200=



    US Dept of Commerce
    National Oceanic and Atmospheric Administration
    National Weather Service
    1325 East West Highway
    Silver Spring, MD 20910
    Page Author: NWS Internet Services Team
Disclaimer
Information Quality
Credits
Glossary
Privacy Policy
Freedom of Information Act (FOIA)
About Us
Career Opportunities